Time;durP1;ratioP1;P1;durP2;ratioP2;P2;SDS_P1;SDS_P2;PMS_P1;PMS_P2;Temp;Humidity;BMP_temperature;BMP_pressure;BME280_temperature;BME280_humidity;BME280_pressure;Samples;Min_cycle;Max_cycle;Signal;HPM_P1;HPM_P2
2022/03/19 00:01:17;;;;;;;19.53;13.40;;;3.50;70.40;;;;;;6275569;28;20190;-60
2022/03/19 00:04:18;;;;;;;18.00;13.43;;;3.40;70.70;;;;;;6258699;28;20239;-60
2022/03/19 00:07:19;;;;;;;22.07;14.23;;;3.40;71.00;;;;;;6267158;28;20281;-60
2022/03/19 00:10:21;;;;;;;17.80;12.43;;;3.30;71.50;;;;;;6241629;28;20213;-59
2022/03/19 00:13:22;;;;;;;17.93;11.93;;;3.20;71.50;;;;;;6264833;28;20201;-60
2022/03/19 00:16:23;;;;;;;19.80;13.10;;;3.10;71.50;;;;;;6249992;28;20204;-59
2022/03/19 00:19:24;;;;;;;19.33;13.33;;;3.10;71.50;;;;;;6274964;28;20197;-59
2022/03/19 00:22:25;;;;;;;19.00;13.80;;;3.00;71.70;;;;;;6291242;28;20275;-58
2022/03/19 00:25:26;;;;;;;19.90;13.03;;;3.00;71.70;;;;;;6253375;28;20236;-58
2022/03/19 00:28:26;;;;;;;18.47;12.90;;;3.00;71.60;;;;;;6241120;28;20206;-59
2022/03/19 00:31:28;;;;;;;19.37;13.47;;;2.90;72.00;;;;;;6250604;28;20202;-58
2022/03/19 00:34:29;;;;;;;18.13;12.67;;;2.80;72.50;;;;;;6267394;28;20263;-58
2022/03/19 00:37:32;;;;;;;18.43;12.40;;;2.80;72.60;;;;;;6291346;28;20180;-58
2022/03/19 00:40:34;;;;;;;17.73;12.77;;;2.70;72.70;;;;;;6274515;28;20292;-58
2022/03/19 00:43:36;;;;;;;18.93;13.77;;;2.60;73.20;;;;;;6254376;28;20297;-58
2022/03/19 00:46:37;;;;;;;19.13;13.20;;;2.60;73.40;;;;;;6221808;28;20190;-58
2022/03/19 00:49:38;;;;;;;17.57;12.23;;;2.50;73.60;;;;;;6264547;28;20197;-59
2022/03/19 00:52:39;;;;;;;18.07;12.60;;;2.50;73.80;;;;;;6277440;28;20221;-60
2022/03/19 00:55:40;;;;;;;17.60;12.60;;;2.40;73.70;;;;;;6257682;28;20200;-60
2022/03/19 00:58:41;;;;;;;18.87;13.17;;;2.40;73.70;;;;;;6273491;28;20197;-60
2022/03/19 01:01:42;;;;;;;19.70;13.73;;;2.40;73.50;;;;;;6273786;28;20281;-60
2022/03/19 01:04:42;;;;;;;19.97;13.30;;;2.30;74.00;;;;;;6265968;28;20252;-59
2022/03/19 01:07:47;;;;;;;19.93;14.73;;;2.30;73.90;;;;;;6289598;28;20221;-59
2022/03/19 01:10:48;;;;;;;18.20;12.90;;;2.10;74.10;;;;;;6273486;28;20277;-59
2022/03/19 01:13:50;;;;;;;22.07;15.20;;;2.00;74.60;;;;;;6276664;28;20198;-60
2022/03/19 01:16:51;;;;;;;17.57;12.93;;;2.00;74.40;;;;;;6290051;28;20200;-61
2022/03/19 01:19:55;;;;;;;17.30;12.13;;;2.00;74.20;;;;;;6269228;28;20194;-60
2022/03/19 01:22:57;;;;;;;20.87;13.07;;;1.90;74.30;;;;;;6225057;28;20229;-60
2022/03/19 01:25:57;;;;;;;20.17;12.77;;;1.90;74.40;;;;;;6252629;28;20241;-60
2022/03/19 01:28:58;;;;;;;18.83;13.23;;;1.80;74.70;;;;;;6253211;28;20247;-62
2022/03/19 01:31:59;;;;;;;20.63;13.17;;;1.80;74.90;;;;;;6256334;28;20188;-59
2022/03/19 01:35:00;;;;;;;19.73;14.70;;;1.80;74.70;;;;;;6215785;28;20197;-60
2022/03/19 01:38:04;;;;;;;20.77;13.40;;;1.70;74.70;;;;;;6279968;28;20193;-59
2022/03/19 01:41:06;;;;;;;20.10;14.53;;;1.70;74.90;;;;;;6251186;28;20202;-59
2022/03/19 01:44:07;;;;;;;19.80;13.97;;;1.60;75.40;;;;;;6238139;28;20220;-62
2022/03/19 01:47:10;;;;;;;17.43;13.47;;;1.60;75.30;;;;;;6221763;28;20218;-61
2022/03/19 01:50:12;;;;;;;17.17;12.57;;;1.60;75.40;;;;;;6239804;28;20249;-58
2022/03/19 01:53:13;;;;;;;22.00;15.03;;;1.60;75.60;;;;;;6232089;28;20252;-58
2022/03/19 01:56:13;;;;;;;20.87;14.37;;;1.60;75.90;;;;;;6216069;28;20179;-58
2022/03/19 01:59:15;;;;;;;20.63;14.40;;;1.50;75.80;;;;;;6248322;28;20271;-58
2022/03/19 02:02:17;;;;;;;21.20;14.50;;;1.50;76.00;;;;;;6274482;28;20336;-59
2022/03/19 02:05:21;;;;;;;20.80;14.03;;;1.40;76.30;;;;;;6231675;28;20187;-59
2022/03/19 02:08:22;;;;;;;24.03;14.33;;;1.40;76.10;;;;;;6252130;28;20263;-59
2022/03/19 02:11:26;;;;;;;19.40;14.83;;;1.40;76.10;;;;;;6273111;28;20197;-59
2022/03/19 02:14:28;;;;;;;21.03;14.03;;;1.40;76.60;;;;;;6239787;28;20202;-60
2022/03/19 02:17:29;;;;;;;21.57;14.33;;;1.40;76.30;;;;;;6273033;28;20186;-59
2022/03/19 02:20:36;;;;;;;21.67;14.00;;;1.30;76.50;;;;;;6289894;28;20282;-59
2022/03/19 02:26:56;;;;;;;17.53;13.80;;;1.40;76.50;;;;;;6276892;28;20234;-59
2022/03/19 02:29:58;;;;;;;18.30;14.17;;;1.30;77.20;;;;;;6272886;28;20218;-60
2022/03/19 02:33:00;;;;;;;21.07;14.70;;;1.30;77.40;;;;;;6277112;28;20197;-60
2022/03/19 02:36:01;;;;;;;21.23;14.03;;;1.20;77.40;;;;;;6243069;28;20192;-60
2022/03/19 02:39:16;;;;;;;21.57;14.03;;;1.20;77.30;;;;;;6262377;28;20193;-60
2022/03/19 02:42:20;;;;;;;22.00;14.77;;;1.20;77.10;;;;;;6242200;28;20210;-60
2022/03/19 02:45:22;;;;;;;18.87;14.30;;;1.20;77.00;;;;;;6248828;28;20213;-60
2022/03/19 02:48:23;;;;;;;22.80;14.07;;;1.10;76.80;;;;;;6265319;28;20189;-59
2022/03/19 02:51:23;;;;;;;21.37;14.00;;;1.10;76.70;;;;;;6260291;28;20243;-59
2022/03/19 02:54:26;;;;;;;22.57;14.00;;;1.10;76.90;;;;;;6244085;28;20221;-60
2022/03/19 02:57:28;;;;;;;20.93;14.80;;;1.00;76.90;;;;;;6227656;28;20206;-60
2022/03/19 03:00:29;;;;;;;22.07;14.83;;;1.00;77.20;;;;;;6219522;28;20201;-60
2022/03/19 03:03:30;;;;;;;21.83;15.27;;;1.00;77.60;;;;;;6270947;28;20279;-60
2022/03/19 03:06:36;;;;;;;25.03;16.33;;;1.00;77.70;;;;;;6235696;28;20182;-60
2022/03/19 03:09:36;;;;;;;19.13;14.03;;;0.90;77.50;;;;;;6252233;28;20197;-60
2022/03/19 03:12:37;;;;;;;22.07;14.80;;;0.90;77.50;;;;;;6235760;28;20190;-60
2022/03/19 03:15:39;;;;;;;25.43;16.00;;;0.90;77.70;;;;;;6247142;28;20196;-60
2022/03/19 03:18:40;;;;;;;22.50;15.33;;;0.90;78.00;;;;;;6292169;28;20200;-60
2022/03/19 03:21:41;;;;;;;21.40;14.73;;;0.90;77.90;;;;;;6267718;28;20188;-60
2022/03/19 03:24:42;;;;;;;20.13;13.97;;;0.90;77.70;;;;;;6250656;28;20213;-60
2022/03/19 03:27:43;;;;;;;23.53;15.97;;;0.90;77.50;;;;;;6276646;28;20235;-60
2022/03/19 03:30:43;;;;;;;20.33;14.83;;;0.90;77.40;;;;;;6293012;28;20178;-59
2022/03/19 03:33:45;;;;;;;18.97;13.60;;;0.80;77.50;;;;;;6275925;28;20269;-60
2022/03/19 03:36:46;;;;;;;20.27;14.87;;;0.80;77.50;;;;;;6292918;28;20196;-59
2022/03/19 03:39:46;;;;;;;21.90;15.03;;;0.80;77.50;;;;;;6276482;28;20181;-59
2022/03/19 03:42:47;;;;;;;22.53;14.70;;;0.80;77.30;;;;;;6264364;28;20225;-60
2022/03/19 03:45:48;;;;;;;22.00;14.13;;;0.70;77.60;;;;;;6233480;28;20199;-59
2022/03/19 03:48:49;;;;;;;23.33;14.47;;;0.70;77.50;;;;;;6248542;28;20273;-59
2022/03/19 03:51:50;;;;;;;20.73;15.53;;;0.70;77.70;;;;;;6259152;28;20192;-60
2022/03/19 03:54:51;;;;;;;21.13;15.77;;;0.70;77.90;;;;;;6250484;28;20286;-58
2022/03/19 03:57:52;;;;;;;20.80;14.13;;;0.60;78.50;;;;;;6234204;28;20195;-58
2022/03/19 04:00:53;;;;;;;23.20;15.63;;;0.60;78.30;;;;;;6250982;28;20184;-58
2022/03/19 04:03:54;;;;;;;21.83;14.60;;;0.60;78.00;;;;;;6252198;28;20262;-58
2022/03/19 04:06:54;;;;;;;19.83;14.10;;;0.60;78.00;;;;;;6277332;28;20272;-58
2022/03/19 04:09:55;;;;;;;30.17;17.57;;;0.60;78.00;;;;;;6274467;28;20285;-58
2022/03/19 04:12:56;;;;;;;23.00;15.93;;;0.50;78.30;;;;;;6275237;28;20208;-59
2022/03/19 04:15:57;;;;;;;20.90;15.43;;;0.50;78.70;;;;;;6233701;28;20182;-58
2022/03/19 04:18:58;;;;;;;22.57;15.53;;;0.40;78.50;;;;;;6233781;28;20217;-58
2022/03/19 04:21:59;;;;;;;21.07;14.63;;;0.40;78.60;;;;;;6238972;28;20198;-59
2022/03/19 04:25:00;;;;;;;22.07;14.67;;;0.40;78.50;;;;;;6275016;28;20284;-58
2022/03/19 04:28:01;;;;;;;21.13;14.77;;;0.40;78.10;;;;;;6274847;28;20185;-58
2022/03/19 04:31:02;;;;;;;20.67;14.53;;;0.40;78.20;;;;;;6268556;28;20190;-58
2022/03/19 04:34:03;;;;;;;23.63;16.00;;;0.50;78.30;;;;;;6249557;28;20210;-59
2022/03/19 04:37:04;;;;;;;24.77;15.80;;;0.40;78.40;;;;;;6216652;28;20202;-58
2022/03/19 04:40:06;;;;;;;19.63;15.43;;;0.40;78.50;;;;;;6233863;28;20215;-58
2022/03/19 04:43:08;;;;;;;20.93;14.47;;;0.40;78.60;;;;;;6250408;28;20217;-58
2022/03/19 04:46:09;;;;;;;23.17;14.50;;;0.40;78.30;;;;;;6307400;28;20195;-60
2022/03/19 04:49:09;;;;;;;22.97;15.97;;;0.40;78.40;;;;;;6274009;28;20193;-59
2022/03/19 04:52:10;;;;;;;23.73;15.77;;;0.40;78.40;;;;;;6257177;28;20260;-59
2022/03/19 04:55:12;;;;;;;26.63;17.30;;;0.30;78.50;;;;;;6261948;28;20185;-59
2022/03/19 04:58:13;;;;;;;20.47;14.20;;;0.30;78.60;;;;;;6250912;28;20336;-59
2022/03/19 05:01:14;;;;;;;22.00;15.33;;;0.30;78.70;;;;;;6261893;28;20189;-59
2022/03/19 05:04:15;;;;;;;25.50;15.03;;;0.30;78.60;;;;;;6249913;28;20229;-59
2022/03/19 05:07:16;;;;;;;22.43;15.77;;;0.30;78.20;;;;;;6274825;28;20192;-59
2022/03/19 05:13:37;;;;;;;24.63;15.53;;;0.40;78.10;;;;;;6296586;28;20194;-59
2022/03/19 05:16:38;;;;;;;22.90;14.77;;;0.40;78.10;;;;;;6260818;28;20206;-58
2022/03/19 05:19:39;;;;;;;22.43;15.47;;;0.50;77.90;;;;;;6252382;28;20256;-58
2022/03/19 05:22:40;;;;;;;25.47;15.63;;;0.50;77.80;;;;;;6278623;28;20208;-58
2022/03/19 05:25:41;;;;;;;21.80;14.90;;;0.50;77.70;;;;;;6280145;28;20248;-58
2022/03/19 05:28:42;;;;;;;23.67;15.50;;;0.50;77.90;;;;;;6248268;28;20202;-58
2022/03/19 05:31:43;;;;;;;23.03;16.03;;;0.50;78.10;;;;;;6244952;28;20221;-59
2022/03/19 05:34:45;;;;;;;23.40;15.17;;;0.60;78.00;;;;;;6256677;28;20198;-57
2022/03/19 05:37:47;;;;;;;23.17;15.37;;;0.70;77.90;;;;;;6239888;28;20194;-58
2022/03/19 05:40:48;;;;;;;22.57;15.80;;;0.70;77.80;;;;;;6273376;28;20210;-58
2022/03/19 05:43:48;;;;;;;21.23;14.50;;;0.80;77.70;;;;;;6261082;28;20221;-58
2022/03/19 05:46:50;;;;;;;25.90;15.17;;;0.80;77.60;;;;;;6283407;28;20193;-58
2022/03/19 05:49:50;;;;;;;20.10;14.23;;;0.80;77.50;;;;;;6239456;28;20246;-56
2022/03/19 05:52:51;;;;;;;23.97;16.67;;;0.80;77.50;;;;;;6262981;28;20197;-58
2022/03/19 05:55:52;;;;;;;23.10;16.33;;;0.90;77.50;;;;;;6255608;28;20251;-59
2022/03/19 05:58:54;;;;;;;21.67;14.47;;;1.00;77.50;;;;;;6255065;28;20217;-56
2022/03/19 06:01:55;;;;;;;23.20;15.43;;;1.20;77.10;;;;;;6229733;28;20201;-55
2022/03/19 06:04:55;;;;;;;20.90;14.77;;;1.30;76.70;;;;;;6283642;28;20225;-59
2022/03/19 06:07:56;;;;;;;21.73;15.53;;;1.40;76.50;;;;;;6275307;28;20199;-58
2022/03/19 06:10:58;;;;;;;21.13;15.50;;;1.60;76.10;;;;;;6256519;28;20198;-57
2022/03/19 06:13:59;;;;;;;22.83;15.80;;;1.70;75.30;;;;;;6277914;28;20240;-57
2022/03/19 06:17:00;;;;;;;20.90;15.53;;;1.80;75.40;;;;;;6261667;28;20197;-56
2022/03/19 06:20:00;;;;;;;25.27;16.13;;;1.90;75.50;;;;;;6262408;28;20221;-57
2022/03/19 06:23:02;;;;;;;22.37;15.13;;;1.90;75.60;;;;;;6259634;28;20220;-58
2022/03/19 06:26:03;;;;;;;22.30;15.60;;;2.00;75.10;;;;;;6278062;28;20321;-55
2022/03/19 06:29:04;;;;;;;22.10;15.00;;;2.20;75.00;;;;;;6259652;28;20239;-58
2022/03/19 06:32:05;;;;;;;20.73;14.13;;;2.30;74.70;;;;;;6257243;28;20200;-58
2022/03/19 06:35:07;;;;;;;23.80;16.30;;;2.50;74.60;;;;;;6260037;28;20197;-57
2022/03/19 06:38:07;;;;;;;22.67;14.57;;;2.70;74.40;;;;;;6259328;28;20236;-57
2022/03/19 06:41:10;;;;;;;20.07;14.73;;;2.80;74.30;;;;;;6266007;28;20221;-58
2022/03/19 06:44:11;;;;;;;21.90;16.63;;;2.90;74.00;;;;;;6246352;28;20223;-56
2022/03/19 06:47:12;;;;;;;25.93;18.97;;;3.10;73.70;;;;;;6274679;28;20198;-57
2022/03/19 06:50:16;;;;;;;22.70;16.60;;;3.20;73.20;;;;;;6276040;28;20190;-57
2022/03/19 06:53:18;;;;;;;19.43;14.63;;;3.40;73.20;;;;;;6257492;28;20868;-56
2022/03/19 06:56:18;;;;;;;23.73;17.17;;;3.40;72.50;;;;;;6208137;28;20252;-58
2022/03/19 06:59:20;;;;;;;22.90;16.27;;;3.60;72.90;;;;;;6237690;28;20236;-56
2022/03/19 07:02:22;;;;;;;25.43;17.73;;;3.80;72.40;;;;;;6274180;28;20232;-58
2022/03/19 07:05:24;;;;;;;23.50;16.77;;;3.90;71.00;;;;;;6256876;28;20242;-59
2022/03/19 07:08:25;;;;;;;21.47;15.47;;;4.00;69.50;;;;;;6239966;28;20216;-59
2022/03/19 07:11:26;;;;;;;18.23;13.30;;;4.20;69.70;;;;;;6263325;28;20203;-58
2022/03/19 07:14:27;;;;;;;22.80;14.80;;;4.30;69.60;;;;;;6260348;28;20193;-58
2022/03/19 07:17:28;;;;;;;22.87;15.90;;;4.40;68.30;;;;;;6268702;28;20200;-58
2022/03/19 07:20:32;;;;;;;21.93;16.10;;;4.60;68.00;;;;;;6270709;28;20233;-57
2022/03/19 07:23:33;;;;;;;20.40;15.23;;;4.70;68.10;;;;;;6275962;28;20217;-58
2022/03/19 07:26:34;;;;;;;22.67;16.80;;;4.70;67.30;;;;;;6264366;28;20233;-57
2022/03/19 07:29:35;;;;;;;24.00;16.77;;;4.80;65.50;;;;;;6252451;28;20202;-57
2022/03/19 07:32:37;;;;;;;23.73;16.40;;;4.90;66.90;;;;;;6272959;28;20212;-57
2022/03/19 07:35:39;;;;;;;22.53;15.10;;;5.00;64.50;;;;;;6255962;28;20271;-57
2022/03/19 07:38:40;;;;;;;22.73;15.20;;;5.10;65.00;;;;;;6250187;28;20217;-54
2022/03/19 07:41:48;;;;;;;20.93;15.87;;;5.30;65.60;;;;;;6275842;28;20189;-57
2022/03/19 07:44:49;;;;;;;24.37;16.47;;;5.40;64.60;;;;;;6218140;28;20658;-57
2022/03/19 07:47:50;;;;;;;20.40;15.87;;;5.70;63.90;;;;;;6218334;28;20193;-55
2022/03/19 07:50:51;;;;;;;22.23;16.90;;;5.70;63.40;;;;;;6240149;28;20212;-57
2022/03/19 07:53:51;;;;;;;20.77;15.43;;;5.70;63.30;;;;;;6250525;28;20199;-57
2022/03/19 07:56:52;;;;;;;22.00;16.73;;;5.60;63.50;;;;;;6231290;28;20251;-57
2022/03/19 07:59:54;;;;;;;25.53;17.00;;;5.60;63.30;;;;;;6259469;28;20284;-57
2022/03/19 08:02:55;;;;;;;22.60;16.53;;;5.80;63.20;;;;;;6254407;28;20209;-57
2022/03/19 08:05:55;;;;;;;19.90;14.93;;;5.70;62.00;;;;;;6275663;28;20185;-58
2022/03/19 08:08:56;;;;;;;24.67;17.83;;;5.80;62.70;;;;;;6268549;28;20185;-58
2022/03/19 08:11:59;;;;;;;22.20;16.77;;;6.00;63.00;;;;;;6267849;28;20276;-57
2022/03/19 08:15:03;;;;;;;24.37;16.97;;;6.00;62.40;;;;;;6269670;28;20204;-57
2022/03/19 08:18:04;;;;;;;22.13;17.63;;;6.30;62.00;;;;;;6250042;28;20186;-58
2022/03/19 08:21:05;;;;;;;20.40;16.83;;;6.50;61.60;;;;;;6258314;28;20199;-57
2022/03/19 08:24:06;;;;;;;24.33;17.70;;;6.80;61.10;;;;;;6259555;28;20251;-58
2022/03/19 08:27:10;;;;;;;23.13;17.77;;;6.90;61.10;;;;;;6237376;28;20260;-58
2022/03/19 08:30:11;;;;;;;26.93;18.93;;;7.00;60.70;;;;;;6270202;28;20190;-58
2022/03/19 08:33:12;;;;;;;25.13;18.27;;;7.00;60.30;;;;;;6283584;28;20198;-58
2022/03/19 08:36:13;;;;;;;26.77;18.47;;;7.30;58.70;;;;;;6264126;28;20284;-59
2022/03/19 08:42:36;;;;;;;21.70;16.43;;;7.50;58.40;;;;;;6276687;28;20300;-58
2022/03/19 08:45:36;;;;;;;25.57;18.80;;;7.70;58.40;;;;;;6243937;28;20224;-58
2022/03/19 08:48:37;;;;;;;22.70;16.63;;;7.50;58.30;;;;;;6284284;28;20190;-58
2022/03/19 08:51:41;;;;;;;26.57;19.37;;;7.70;57.70;;;;;;6239818;28;20289;-58
2022/03/19 08:54:42;;;;;;;23.30;18.03;;;7.90;56.30;;;;;;6264247;28;20198;-58
2022/03/19 08:57:43;;;;;;;24.73;17.23;;;8.10;56.40;;;;;;6273223;28;20227;-58
2022/03/19 09:00:44;;;;;;;24.63;17.07;;;8.10;55.70;;;;;;6261606;28;20227;-58
2022/03/19 09:03:45;;;;;;;26.97;17.80;;;7.90;56.20;;;;;;6260220;28;20225;-58
2022/03/19 09:06:46;;;;;;;22.50;17.07;;;7.80;57.00;;;;;;6247235;28;20198;-55
2022/03/19 09:09:52;;;;;;;24.70;19.10;;;8.10;55.60;;;;;;6240583;28;20261;-58
2022/03/19 09:12:55;;;;;;;25.47;18.37;;;8.20;55.10;;;;;;6270048;28;20198;-58
2022/03/19 09:15:55;;;;;;;24.67;18.23;;;8.30;54.50;;;;;;6264768;28;20201;-58
2022/03/19 09:18:57;;;;;;;21.73;17.30;;;8.30;55.20;;;;;;6289525;28;20204;-58
2022/03/19 09:21:59;;;;;;;20.93;16.37;;;8.80;52.50;;;;;;6283241;28;20197;-57
2022/03/19 09:25:00;;;;;;;23.63;17.40;;;9.00;52.20;;;;;;6227411;28;20248;-58
2022/03/19 09:28:00;;;;;;;23.27;17.60;;;9.00;52.30;;;;;;6282494;28;20197;-58
2022/03/19 09:31:01;;;;;;;24.20;18.23;;;9.10;51.80;;;;;;6286365;28;20377;-58
2022/03/19 09:34:02;;;;;;;23.97;17.90;;;9.40;51.80;;;;;;6246383;28;20193;-58
2022/03/19 09:37:03;;;;;;;23.93;17.47;;;9.60;50.30;;;;;;6240296;28;21232;-58
2022/03/19 09:40:05;;;;;;;24.73;17.63;;;9.60;50.50;;;;;;6237051;28;20224;-56
2022/03/19 09:43:06;;;;;;;21.97;17.40;;;9.60;50.10;;;;;;6243696;28;20271;-58
2022/03/19 09:46:07;;;;;;;22.27;17.27;;;9.70;51.00;;;;;;6256782;28;20201;-57
2022/03/19 09:49:09;;;;;;;26.30;18.30;;;9.90;49.30;;;;;;6267339;28;20202;-57
2022/03/19 09:52:12;;;;;;;23.97;17.77;;;9.80;49.60;;;;;;6226201;28;20195;-56
2022/03/19 09:55:17;;;;;;;21.40;15.97;;;9.90;50.00;;;;;;6285833;28;20193;-57
2022/03/19 09:58:18;;;;;;;23.37;17.47;;;10.00;48.70;;;;;;6245953;28;20190;-55
2022/03/19 10:01:19;;;;;;;21.27;17.00;;;9.90;49.20;;;;;;6255571;28;20210;-55
2022/03/19 10:04:20;;;;;;;23.87;17.20;;;10.10;48.90;;;;;;6271324;28;20241;-55
2022/03/19 10:10:44;;;;;;;21.97;17.40;;;9.90;50.20;;;;;;6283676;28;20205;-54
2022/03/19 10:13:47;;;;;;;22.30;16.57;;;10.00;50.50;;;;;;6272674;28;20206;-55
2022/03/19 10:16:51;;;;;;;23.80;18.73;;;10.30;49.60;;;;;;6288718;28;20209;-56
2022/03/19 10:19:52;;;;;;;23.23;17.30;;;10.30;49.70;;;;;;6272603;28;20235;-55
2022/03/19 10:22:57;;;;;;;21.27;16.97;;;10.50;49.10;;;;;;6273334;28;20235;-55
2022/03/19 10:25:58;;;;;;;22.77;18.27;;;10.60;49.20;;;;;;6243480;28;20240;-54
2022/03/19 10:29:00;;;;;;;24.97;18.30;;;10.80;48.70;;;;;;6289315;28;20185;-55
2022/03/19 10:32:04;;;;;;;23.53;18.43;;;10.90;47.60;;;;;;6265487;28;20214;-53
2022/03/19 10:35:05;;;;;;;25.33;19.60;;;11.00;48.70;;;;;;6272726;28;20285;-57
2022/03/19 10:38:23;;;;;;;25.63;20.30;;;11.30;46.20;;;;;;6256166;28;20197;-54
2022/03/19 10:41:24;;;;;;;30.80;21.20;;;11.30;46.90;;;;;;6242673;28;20198;-57
2022/03/19 10:44:27;;;;;;;24.37;18.80;;;11.40;47.60;;;;;;6247762;28;20312;-53
2022/03/19 10:47:27;;;;;;;23.93;19.80;;;11.30;48.10;;;;;;6272496;28;20221;-55
2022/03/19 10:50:28;;;;;;;21.60;16.77;;;11.20;47.20;;;;;;6252208;28;20191;-56
2022/03/19 10:53:29;;;;;;;22.63;16.70;;;11.30;44.90;;;;;;6240567;28;20189;-52
2022/03/19 10:56:30;;;;;;;22.33;16.90;;;11.20;45.10;;;;;;6269573;28;20203;-54
2022/03/19 10:59:31;;;;;;;20.07;15.33;;;11.40;44.70;;;;;;6267021;28;20201;-56
2022/03/19 11:02:32;;;;;;;18.67;15.30;;;11.30;43.80;;;;;;6264290;28;20232;-55
2022/03/19 11:05:34;;;;;;;20.67;17.33;;;11.30;42.80;;;;;;6280826;28;20190;-55
2022/03/19 11:08:38;;;;;;;21.70;17.30;;;11.70;42.80;;;;;;6224694;28;20290;-53
2022/03/19 11:11:57;;;;;;;19.37;15.90;;;11.80;43.00;;;;;;6236871;28;20207;-56
2022/03/19 11:14:59;;;;;;;20.37;16.40;;;11.70;42.60;;;;;;6310322;28;20237;-53
2022/03/19 11:18:05;;;;;;;23.00;17.37;;;11.70;42.20;;;;;;6293246;28;20262;-59
2022/03/19 11:21:09;;;;;;;19.83;16.43;;;11.60;42.40;;;;;;6276365;28;20194;-58
2022/03/19 11:24:23;;;;;;;20.07;15.90;;;11.50;42.00;;;;;;6243681;28;20226;-58
2022/03/19 11:27:28;;;;;;;23.30;17.30;;;11.30;42.10;;;;;;6201713;28;20235;-58
2022/03/19 11:30:34;;;;;;;20.70;16.60;;;11.20;42.60;;;;;;6267834;28;20195;-58
2022/03/19 11:33:36;;;;;;;20.33;16.93;;;11.20;42.60;;;;;;6268222;28;20277;-59
2022/03/19 11:36:57;;;;;;;20.00;16.57;;;11.20;42.50;;;;;;6229467;28;20202;-59
2022/03/19 11:40:26;;;;;;;21.23;15.97;;;11.10;43.00;;;;;;6243603;28;20194;-58
2022/03/19 11:43:35;;;;;;;22.77;16.80;;;11.20;43.10;;;;;;6239146;28;20213;-59
2022/03/19 11:46:56;;;;;;;21.67;16.07;;;11.30;42.50;;;;;;6259191;28;20191;-58
2022/03/19 11:50:02;;;;;;;22.27;16.57;;;11.90;41.80;;;;;;6272641;28;20279;-58
2022/03/19 11:53:06;;;;;;;19.57;16.13;;;12.00;40.20;;;;;;6253422;28;20194;-59
2022/03/19 11:56:07;;;;;;;19.23;16.10;;;12.10;40.30;;;;;;6259035;28;20197;-59
2022/03/19 11:59:23;;;;;;;20.27;16.57;;;12.70;39.50;;;;;;6220131;28;20198;-59
2022/03/19 12:02:23;;;;;;;18.47;15.10;;;13.10;38.00;;;;;;6257103;28;20249;-59
2022/03/19 12:05:27;;;;;;;19.30;15.83;;;13.40;37.10;;;;;;6233249;28;20202;-59
2022/03/19 12:08:29;;;;;;;20.50;16.10;;;14.10;36.00;;;;;;6233474;28;20194;-58
2022/03/19 12:11:32;;;;;;;24.53;18.00;;;14.70;34.10;;;;;;6236551;28;20198;-59
2022/03/19 12:14:35;;;;;;;20.53;16.57;;;14.90;33.80;;;;;;6255219;28;20198;-58
2022/03/19 12:17:35;;;;;;;19.90;15.87;;;14.80;32.50;;;;;;6237950;28;20209;-59
2022/03/19 12:20:42;;;;;;;21.57;17.50;;;14.70;33.50;;;;;;6237359;28;20205;-58
2022/03/19 12:24:06;;;;;;;20.50;15.60;;;14.30;34.10;;;;;;6213891;28;20215;-59
2022/03/19 12:27:07;;;;;;;19.90;16.83;;;13.80;34.60;;;;;;6279871;28;20234;-60
2022/03/19 12:30:09;;;;;;;22.07;16.17;;;13.80;34.50;;;;;;6255346;28;20197;-59
2022/03/19 12:33:10;;;;;;;19.93;15.77;;;13.50;35.10;;;;;;6264870;28;20213;-60
2022/03/19 12:36:11;;;;;;;23.53;16.83;;;13.70;34.40;;;;;;6241735;28;20206;-58
2022/03/19 12:39:13;;;;;;;20.17;16.13;;;13.80;34.70;;;;;;6274543;28;20276;-57
2022/03/19 12:42:31;;;;;;;21.20;17.30;;;13.30;35.70;;;;;;6285845;28;20204;-60
2022/03/19 12:45:40;;;;;;;21.13;17.30;;;13.20;36.70;;;;;;6259225;28;20190;-61
2022/03/19 12:48:42;;;;;;;21.10;17.20;;;12.90;36.10;;;;;;6266718;28;20186;-60
2022/03/19 12:51:48;;;;;;;21.23;16.13;;;12.80;37.00;;;;;;6263130;28;20221;-60
2022/03/19 12:54:55;;;;;;;20.87;16.77;;;13.00;37.40;;;;;;6272698;28;20191;-60
2022/03/19 12:58:03;;;;;;;20.77;16.07;;;13.00;37.60;;;;;;6253641;28;20193;-59
2022/03/19 13:01:07;;;;;;;20.40;16.97;;;12.90;37.30;;;;;;6245073;28;20269;-59
2022/03/19 13:04:08;;;;;;;21.23;16.07;;;12.80;37.00;;;;;;6276152;28;20219;-58
2022/03/19 13:07:08;;;;;;;20.60;15.93;;;13.00;36.80;;;;;;6281324;28;20188;-59
2022/03/19 13:10:14;;;;;;;20.40;16.43;;;13.30;35.20;;;;;;6275004;28;20219;-58
2022/03/19 13:13:14;;;;;;;21.27;17.80;;;12.90;35.60;;;;;;6257170;28;20197;-59
2022/03/19 13:16:32;;;;;;;22.07;16.33;;;12.60;36.40;;;;;;6223693;28;20299;-59
2022/03/19 13:19:33;;;;;;;21.73;17.60;;;12.50;37.20;;;;;;6287305;28;20194;-58
2022/03/19 13:22:35;;;;;;;19.70;16.37;;;14.70;34.30;;;;;;6240670;28;20251;-57
2022/03/19 13:25:36;;;;;;;20.93;16.10;;;16.70;30.10;;;;;;6273470;28;20250;-58
2022/03/19 13:28:57;;;;;;;21.73;17.50;;;16.80;30.40;;;;;;6290159;28;20192;-58
2022/03/19 13:32:02;;;;;;;21.13;17.40;;;16.70;29.60;;;;;;6287209;28;20182;-58
2022/03/19 13:35:04;;;;;;;20.93;17.07;;;16.30;30.10;;;;;;6252203;28;20191;-59
2022/03/19 13:38:10;;;;;;;21.80;16.97;;;16.00;30.70;;;;;;6252793;28;20199;-58
2022/03/19 13:41:18;;;;;;;20.23;17.27;;;15.40;31.30;;;;;;6257166;28;20206;-57
2022/03/19 13:44:27;;;;;;;18.83;15.43;;;15.10;33.00;;;;;;6272749;28;20217;-58
2022/03/19 13:47:34;;;;;;;22.47;17.97;;;15.00;33.00;;;;;;6261665;28;20209;-57
2022/03/19 13:50:41;;;;;;;21.33;17.93;;;14.60;32.80;;;;;;6233125;28;20183;-59
2022/03/19 13:53:43;;;;;;;20.40;17.00;;;14.20;33.90;;;;;;6262573;28;20220;-59
2022/03/19 13:56:56;;;;;;;20.77;17.77;;;14.00;35.30;;;;;;6272610;28;20189;-58
2022/03/19 14:00:10;;;;;;;20.57;16.77;;;14.20;34.50;;;;;;6239369;28;20200;-58
2022/03/19 14:03:23;;;;;;;20.33;16.77;;;14.00;34.90;;;;;;6284455;28;20226;-57
2022/03/19 14:06:32;;;;;;;24.10;17.80;;;13.80;35.70;;;;;;6272910;28;20187;-58
2022/03/19 14:09:33;;;;;;;22.47;17.80;;;13.60;35.50;;;;;;6240049;28;20202;-56
2022/03/19 14:12:39;;;;;;;26.00;17.90;;;13.30;36.60;;;;;;6231413;28;20170;-57
2022/03/19 14:15:48;;;;;;;23.07;17.63;;;12.90;36.90;;;;;;6272204;28;20189;-59
2022/03/19 14:18:48;;;;;;;20.90;18.13;;;12.80;36.90;;;;;;6275703;28;20222;-58
2022/03/19 14:21:49;;;;;;;20.47;15.73;;;12.50;37.60;;;;;;6250484;28;20207;-58
2022/03/19 14:24:52;;;;;;;21.87;17.17;;;12.30;38.60;;;;;;6274330;28;20221;-57
2022/03/19 14:28:04;;;;;;;25.83;18.27;;;12.40;38.20;;;;;;6246857;28;20238;-58
2022/03/19 14:31:05;;;;;;;23.57;18.17;;;12.60;38.10;;;;;;6247304;28;20269;-57
2022/03/19 14:34:06;;;;;;;20.10;17.63;;;12.80;37.80;;;;;;6277366;28;20204;-58
2022/03/19 14:37:07;;;;;;;23.67;18.13;;;12.90;37.50;;;;;;6265508;28;20224;-57
2022/03/19 14:40:09;;;;;;;19.80;16.00;;;13.30;37.60;;;;;;6248028;28;20197;-58
2022/03/19 14:43:15;;;;;;;23.23;18.33;;;14.00;36.30;;;;;;6298161;28;20225;-57
2022/03/19 14:46:18;;;;;;;20.57;16.73;;;14.40;34.80;;;;;;6247737;28;20194;-58
2022/03/19 14:49:19;;;;;;;23.30;17.67;;;14.30;34.80;;;;;;6260212;28;20182;-58
2022/03/19 14:52:19;;;;;;;21.60;17.03;;;14.20;34.60;;;;;;6244247;28;20209;-58
2022/03/19 14:55:23;;;;;;;23.57;18.67;;;13.80;34.40;;;;;;6262526;28;20197;-58
2022/03/19 14:58:24;;;;;;;21.80;16.77;;;13.40;36.00;;;;;;6284531;28;20246;-57
2022/03/19 15:01:25;;;;;;;22.50;16.93;;;12.80;36.10;;;;;;6292884;28;20201;-59
2022/03/19 15:04:26;;;;;;;20.50;16.47;;;12.60;37.50;;;;;;6291625;28;20214;-59
2022/03/19 15:07:30;;;;;;;20.70;16.27;;;12.30;37.90;;;;;;6297993;28;20199;-59
2022/03/19 15:10:31;;;;;;;20.60;17.30;;;12.10;38.50;;;;;;6266707;28;20185;-59
2022/03/19 15:13:33;;;;;;;17.47;14.63;;;11.90;38.00;;;;;;6249005;28;20201;-59
2022/03/19 15:16:34;;;;;;;20.63;16.60;;;11.60;39.30;;;;;;6259862;28;20186;-58
2022/03/19 15:19:35;;;;;;;17.87;14.80;;;11.40;39.60;;;;;;6274786;28;20224;-59
2022/03/19 15:22:40;;;;;;;21.40;15.80;;;11.20;40.80;;;;;;6264905;28;20216;-59
2022/03/19 15:25:41;;;;;;;20.23;15.83;;;10.90;41.70;;;;;;6262385;28;20267;-59
2022/03/19 15:28:44;;;;;;;23.27;18.23;;;10.80;42.10;;;;;;6242085;28;20197;-59
2022/03/19 15:31:44;;;;;;;18.13;14.13;;;10.60;42.90;;;;;;6270045;28;20195;-58
2022/03/19 15:34:46;;;;;;;20.17;17.13;;;10.40;43.00;;;;;;6278267;28;20262;-58
2022/03/19 15:37:48;;;;;;;17.13;13.80;;;10.30;43.70;;;;;;6267197;28;20228;-58
2022/03/19 15:40:49;;;;;;;18.43;15.03;;;10.20;44.20;;;;;;6258288;28;20194;-58
2022/03/19 15:43:50;;;;;;;19.47;15.57;;;10.10;44.70;;;;;;6259163;28;20224;-58
2022/03/19 15:46:50;;;;;;;23.23;16.30;;;10.00;45.30;;;;;;6275327;28;20243;-59